ヤンゴン の空港の天気 - METARとTAF

ヤンゴン国際空港 ( VYYY / RGN ) - ミャンマー ヤンゴン
飛行場実況気象(Metar)
観測時間08/07 04:30 +0630 (08/06 22:00 UTC)
風向・風速南南東 2m/s
視程6000m
天気現象
全天の8割程度の雲 雲底高度 400m
少しの雲 雲底高度 550m
全天を覆う雲 雲底高度 2740m
気温25℃
湿度89%
気圧1005hPa
METARVYYY 062200Z 15003KT 6000 BKN013 FEW018CB OVC090 25/23 Q1005
過去の天気等 Google飛行場航空写真 Wunderground天気予報

過去48時間のMETAR

飛行場予報(TAF)
発表時間: 8/06 23:30 +0630 (8/06 17:00 UTC)
予報対象時間: 7日0時 +0630 ~ 8日0時 +0630
風向・風速南東 3m/s
視程7000m
全天の8割程度の雲 雲底高度 460m
少しの積乱雲 雲底高度 610m
全天の8割程度の雲 雲底高度 2740m
7日0時 +0630 ~ 7日6時 +0630 に一時的に
風向・風速南東 3m/s
視程5000m
天気現象弱い雨
7日6時 +0630 ~ 7日12時 +0630 に一時的に
風向・風速西南西 3m/s
視程5000m
天気現象弱い雷雨
全天の8割程度の雲 雲底高度 370m
少しの積乱雲 雲底高度 550m
全天を覆う雲 雲底高度 2440m
TAF VYYY 061700Z 0618/0718 14005KT 7000 BKN015 FEW020CB BKN090
TEMPO 0618/0624 14005KT 5000 -RA
TEMPO 0700/0706 25005KT 5000 -TSRA BKN012 FEW018CB OVC080